Time;durP1;ratioP1;P1;durP2;ratioP2;P2;SDS_P1;SDS_P2;PMS_P1;PMS_P2;Temp;Humidity;BMP_temperature;BMP_pressure;BME280_temperature;BME280_humidity;BME280_pressure;Samples;Min_cycle;Max_cycle;Signal;HPM_P1;HPM_P2
2022/05/12 00:00:23;;;;;;;12.23;4.80;;;;;;;17.66;69.91;99926.81;5052093;28;20060;-67
2022/05/12 00:02:53;;;;;;;6.45;4.60;;;;;;;17.64;69.78;99923.56;5051869;28;20053;-68
2022/05/12 00:05:21;;;;;;;10.02;5.63;;;;;;;17.61;69.92;99925.09;5052412;28;20049;-68
2022/05/12 00:07:49;;;;;;;8.52;5.05;;;;;;;17.53;70.50;99931.78;5050527;28;20417;-67
2022/05/12 00:10:19;;;;;;;8.50;5.43;;;;;;;17.47;71.26;99940.94;5052562;28;20052;-67
2022/05/12 00:12:47;;;;;;;8.27;5.35;;;;;;;17.42;71.16;99944.88;5057824;28;20048;-67
2022/05/12 00:15:17;;;;;;;6.65;5.97;;;;;;;17.34;71.30;99943.91;5052242;28;20060;-68
2022/05/12 00:17:46;;;;;;;7.97;5.60;;;;;;;17.34;71.35;99960.00;5051832;28;20049;-67
2022/05/12 00:20:19;;;;;;;9.48;6.63;;;;;;;17.22;71.98;99955.38;5052102;28;20052;-67
2022/05/12 00:22:47;;;;;;;7.15;6.03;;;;;;;17.22;71.87;99967.44;5052388;28;20049;-67
2022/05/12 00:25:18;;;;;;;8.60;6.40;;;;;;;17.12;72.35;99959.59;5052139;28;20056;-67
2022/05/12 00:27:46;;;;;;;8.30;7.43;;;;;;;17.15;72.40;99966.47;5054241;28;20049;-67
2022/05/12 00:30:14;;;;;;;10.88;7.63;;;;;;;17.08;72.73;99969.16;5052147;28;20057;-67
2022/05/12 00:32:45;;;;;;;9.55;7.72;;;;;;;17.04;72.75;99963.44;5052070;28;20052;-67
2022/05/12 00:35:16;;;;;;;9.77;7.60;;;;;;;17.09;72.82;99948.25;5051744;28;20055;-67
2022/05/12 00:37:44;;;;;;;8.77;7.18;;;;;;;17.00;73.08;99951.31;5051822;28;20049;-67
2022/05/12 00:40:12;;;;;;;8.90;7.72;;;;;;;16.99;73.10;99967.38;5051768;28;20052;-67
2022/05/12 00:42:53;;;;;;;8.70;7.53;;;;;;;17.01;72.94;99961.38;5064226;28;20496;-67
2022/05/12 00:45:20;;;;;;;10.52;6.93;;;;;;;16.94;72.55;99972.47;5061349;28;20805;-67
2022/05/12 00:47:48;;;;;;;8.98;7.85;;;;;;;16.96;72.47;99968.09;5051958;28;20063;-67
2022/05/12 00:50:18;;;;;;;10.40;8.13;;;;;;;16.99;72.49;99972.19;5051775;28;20492;-67
2022/05/12 00:52:45;;;;;;;10.00;8.55;;;;;;;16.99;72.41;99961.75;5051509;28;20049;-67
2022/05/12 00:55:16;;;;;;;11.57;8.27;;;;;;;16.98;72.59;99974.19;5051452;28;20049;-67
2022/05/12 00:57:49;;;;;;;11.93;8.30;;;;;;;17.04;72.45;99977.50;5065677;28;20055;-67
2022/05/12 01:00:17;;;;;;;12.57;9.40;;;;;;;17.04;72.68;99985.97;5031879;28;20065;-68
2022/05/12 01:02:50;;;;;;;11.75;9.90;;;;;;;17.01;72.82;99981.91;5048703;28;20052;-67
2022/05/12 01:05:20;;;;;;;11.13;9.68;;;;;;;17.02;72.52;99994.75;5051635;28;20071;-67
2022/05/12 01:07:47;;;;;;;;;;;;;;;16.97;73.17;100003.50;5051278;28;20076;-67
2022/05/12 01:10:15;;;;;;;12.80;9.93;;;;;;;16.93;72.69;99997.00;5051719;28;19928;-67
2022/05/12 01:12:45;;;;;;;11.30;9.23;;;;;;;16.95;72.49;100005.06;5050398;28;20060;-67
2022/05/12 01:15:14;;;;;;;11.35;10.07;;;;;;;16.95;72.41;100005.88;5051234;28;20489;-67
2022/05/12 01:17:42;;;;;;;12.40;10.52;;;;;;;16.89;72.57;100014.97;5051332;28;20409;-67
2022/05/12 01:20:11;;;;;;;11.55;10.35;;;;;;;16.86;72.43;100019.31;5055369;28;20048;-67
2022/05/12 01:22:51;;;;;;;13.40;11.90;;;;;;;16.86;72.38;100041.81;5054770;28;20063;-67
2022/05/12 01:25:22;;;;;;;13.60;11.18;;;;;;;16.86;73.03;100036.19;5054361;28;20049;-67
2022/05/12 01:27:50;;;;;;;11.20;9.13;;;;;;;16.88;72.28;100027.41;5068880;28;20191;-67
2022/05/12 01:30:20;;;;;;;10.30;8.32;;;;;;;16.82;71.80;100040.97;5057069;28;20049;-67
2022/05/12 01:32:47;;;;;;;8.82;6.85;;;;;;;16.84;70.83;100041.41;5054947;28;20044;-67
2022/05/12 01:35:16;;;;;;;8.10;6.72;;;;;;;16.85;69.77;100051.47;5054754;28;20064;-67
2022/05/12 01:37:48;;;;;;;8.88;5.60;;;;;;;16.83;69.45;100057.44;5055180;28;20520;-67
2022/05/12 01:40:18;;;;;;;8.57;5.57;;;;;;;16.78;69.18;100063.34;5055160;28;20512;-67
2022/05/12 01:42:48;;;;;;;7.57;4.55;;;;;;;16.71;68.31;100062.34;5062566;28;20055;-67
2022/05/12 01:45:18;;;;;;;6.10;4.40;;;;;;;16.61;67.79;100066.56;5054857;28;20052;-67
2022/05/12 01:47:46;;;;;;;7.38;5.03;;;;;;;16.50;68.04;100079.53;5054972;28;20068;-67
2022/05/12 01:50:15;;;;;;;8.20;4.75;;;;;;;16.39;68.13;100084.88;5055100;28;20064;-68
2022/05/12 01:52:44;;;;;;;7.47;5.28;;;;;;;16.33;68.29;100095.56;5045050;28;20053;-68
2022/05/12 01:55:12;;;;;;;10.30;5.05;;;;;;;16.21;68.15;100090.03;5045575;28;20405;-68
2022/05/12 01:57:42;;;;;;;6.15;4.60;;;;;;;16.09;68.12;100099.38;5054254;28;20056;-68
2022/05/12 02:00:14;;;;;;;7.93;5.00;;;;;;;15.99;68.65;100100.72;5054344;28;20064;-68
2022/05/12 02:02:42;;;;;;;6.10;4.43;;;;;;;15.86;69.25;100107.59;5054628;28;20053;-68
2022/05/12 02:05:11;;;;;;;6.85;4.07;;;;;;;15.76;68.69;100106.13;5054889;28;20422;-68
2022/05/12 02:07:42;;;;;;;7.18;3.67;;;;;;;15.67;68.66;100108.25;5053175;28;20053;-68
2022/05/12 02:10:13;;;;;;;7.00;3.47;;;;;;;15.62;67.92;100114.09;5054603;28;20052;-68
2022/05/12 02:12:40;;;;;;;4.45;3.25;;;;;;;15.45;68.08;100136.88;5054582;28;20513;-68
2022/05/12 02:15:09;;;;;;;6.60;4.15;;;;;;;15.34;68.41;100134.56;5054343;28;20494;-68
2022/05/12 02:17:38;;;;;;;8.38;3.95;;;;;;;15.26;68.36;100141.13;5054376;28;20516;-68
2022/05/12 02:20:07;;;;;;;5.90;3.50;;;;;;;15.13;68.72;100150.75;5054586;28;20056;-68
2022/05/12 02:22:34;;;;;;;5.38;3.15;;;;;;;15.00;69.01;100145.16;5054877;28;20056;-68
2022/05/12 02:25:04;;;;;;;6.68;3.63;;;;;;;14.93;69.05;100156.16;5060678;28;20058;-68
2022/05/12 02:27:31;;;;;;;5.13;3.30;;;;;;;14.83;68.99;100159.44;5053530;28;20064;-68
2022/05/12 02:29:59;;;;;;;6.15;3.78;;;;;;;14.74;69.36;100164.31;5054532;28;20053;-68
2022/05/12 02:32:28;;;;;;;6.53;3.75;;;;;;;14.64;69.33;100165.63;5054152;28;20393;-68
2022/05/12 02:34:57;;;;;;;5.22;3.10;;;;;;;14.51;69.32;100173.16;5054030;28;20048;-68
2022/05/12 02:37:24;;;;;;;5.30;3.08;;;;;;;14.39;68.93;100173.94;5052685;28;20059;-68
2022/05/12 02:39:52;;;;;;;9.00;3.70;;;;;;;14.32;69.14;100175.69;5054420;28;20053;-68
2022/05/12 02:42:19;;;;;;;6.82;3.30;;;;;;;14.26;69.22;100188.28;5053979;28;20056;-67
2022/05/12 02:44:47;;;;;;;4.35;2.55;;;;;;;14.11;69.28;100190.59;5053786;28;20499;-68
2022/05/12 02:47:14;;;;;;;5.40;3.08;;;;;;;14.06;69.49;100196.38;5052813;28;20527;-67
2022/05/12 02:49:45;;;;;;;7.63;2.95;;;;;;;13.94;69.83;100194.38;5054191;28;20056;-68
2022/05/12 02:52:16;;;;;;;6.53;3.00;;;;;;;13.88;69.95;100206.13;5051501;28;20412;-67
2022/05/12 02:54:44;;;;;;;4.40;2.63;;;;;;;13.79;70.23;100215.41;5054183;28;20067;-67
2022/05/12 02:57:12;;;;;;;6.97;3.10;;;;;;;13.70;70.64;100216.66;5053285;28;20049;-67
2022/05/12 02:59:39;;;;;;;7.00;2.78;;;;;;;13.66;70.34;100218.50;5053426;28;20057;-67
2022/05/12 03:02:06;;;;;;;3.92;2.83;;;;;;;13.63;70.56;100227.56;5053285;28;20049;-67
2022/05/12 03:04:34;;;;;;;5.63;2.80;;;;;;;13.57;70.48;100229.78;5053539;28;20404;-68
2022/05/12 03:07:01;;;;;;;9.27;3.50;;;;;;;13.52;71.12;100225.19;5052253;28;20044;-68
2022/05/12 03:09:30;;;;;;;5.28;2.97;;;;;;;13.49;70.80;100230.66;5052928;28;20056;-68
2022/05/12 03:11:58;;;;;;;5.32;2.78;;;;;;;13.42;71.40;100234.00;5053218;28;20496;-68
2022/05/12 03:14:25;;;;;;;6.43;3.17;;;;;;;13.36;71.52;100233.38;5053297;28;20056;-68
2022/05/12 03:16:53;;;;;;;6.88;3.17;;;;;;;13.32;71.46;100235.19;5053725;28;20382;-68
2022/05/12 03:19:22;;;;;;;8.52;3.53;;;;;;;13.27;71.59;100235.38;5053190;28;20056;-68
2022/05/12 03:21:50;;;;;;;5.05;2.60;;;;;;;13.21;71.68;100250.72;5052059;28;20053;-67
2022/05/12 03:24:23;;;;;;;5.65;3.25;;;;;;;13.21;72.17;100250.72;5053649;28;20151;-68
2022/05/12 03:26:52;;;;;;;8.40;3.30;;;;;;;13.16;72.10;100250.88;5053198;28;20048;-67
2022/05/12 03:29:19;;;;;;;6.03;3.33;;;;;;;13.12;72.48;100252.72;5053208;28;20053;-68
2022/05/12 03:31:46;;;;;;;4.63;3.33;;;;;;;13.09;72.96;100248.63;5058693;28;20483;-68
2022/05/12 03:34:14;;;;;;;7.32;3.38;;;;;;;13.06;73.35;100260.50;5053257;28;20393;-68
2022/05/12 03:36:43;;;;;;;6.38;3.67;;;;;;;13.02;73.43;100259.53;5053034;28;20064;-68
2022/05/12 03:39:10;;;;;;;6.65;4.45;;;;;;;12.98;73.54;100267.75;5052886;28;20060;-68
2022/05/12 03:41:38;;;;;;;7.97;3.83;;;;;;;12.94;73.93;100275.16;5052254;28;20049;-68
2022/05/12 03:46:55;;;;;;;7.45;4.68;;;;;;;12.87;74.88;100274.03;5058124;28;20135;-68
2022/05/12 03:49:25;;;;;;;11.45;5.20;;;;;;;12.89;75.49;100278.16;5052638;28;20421;-68
2022/05/12 03:51:52;;;;;;;6.45;4.10;;;;;;;12.90;75.38;100282.59;5052785;28;20057;-68
2022/05/12 03:54:19;;;;;;;7.88;5.15;;;;;;;12.89;75.48;100289.34;5052006;28;20060;-68
2022/05/12 03:56:47;;;;;;;9.95;5.35;;;;;;;12.90;75.59;100288.19;5052801;28;20500;-68
2022/05/12 03:59:19;;;;;;;7.13;4.70;;;;;;;12.91;75.20;100297.38;5055032;28;20053;-68
2022/05/12 04:01:46;;;;;;;7.95;4.82;;;;;;;12.92;74.38;100297.06;5052526;28;20138;-68
2022/05/12 04:04:14;;;;;;;7.60;4.95;;;;;;;12.91;74.46;100302.97;5052274;28;20060;-68
2022/05/12 04:06:42;;;;;;;7.07;4.90;;;;;;;12.87;74.36;100302.84;5052807;28;20486;-68
2022/05/12 04:09:10;;;;;;;7.57;5.07;;;;;;;12.88;74.18;100298.88;5051798;28;20053;-68
2022/05/12 04:11:37;;;;;;;8.95;5.38;;;;;;;12.92;74.13;100299.84;5052377;28;20450;-68
2022/05/12 04:14:05;;;;;;;8.05;5.20;;;;;;;12.92;74.13;100305.44;5060132;28;20075;-68
2022/05/12 04:16:35;;;;;;;7.05;4.70;;;;;;;12.93;74.27;100311.84;5052121;28;20057;-68
2022/05/12 04:19:05;;;;;;;7.93;4.70;;;;;;;12.96;74.17;100316.78;5052371;28;20060;-68
2022/05/12 04:21:34;;;;;;;;;;;;;;;12.91;74.61;100319.75;5053176;28;20056;-68
2022/05/12 04:24:03;;;;;;;7.65;4.43;;;;;;;12.96;73.95;100322.38;5052302;28;19924;-68
2022/05/12 04:26:32;;;;;;;7.78;4.38;;;;;;;13.02;73.67;100323.84;5044780;28;20512;-68
2022/05/12 04:28:59;;;;;;;7.07;4.40;;;;;;;13.09;74.25;100334.50;5051354;28;20053;-68
2022/05/12 04:31:27;;;;;;;9.40;4.90;;;;;;;13.14;73.61;100339.88;5051510;28;20056;-68
2022/05/12 04:36:40;;;;;;;8.60;4.75;;;;;;;13.20;73.16;100349.75;5059224;28;20413;-68
2022/05/12 04:39:08;;;;;;;7.57;4.30;;;;;;;13.25;73.05;100346.78;5051683;28;20473;-68
2022/05/12 04:41:36;;;;;;;8.63;4.50;;;;;;;13.32;73.07;100343.47;5051572;28;20056;-68
2022/05/12 04:44:05;;;;;;;8.65;6.38;;;;;;;13.34;72.67;100355.97;5051464;28;20049;-68
2022/05/12 04:46:34;;;;;;;7.20;4.55;;;;;;;13.40;72.92;100370.59;5039456;28;20060;-68
2022/05/12 04:49:02;;;;;;;7.13;4.88;;;;;;;13.44;72.22;100365.13;5052145;28;20063;-68
2022/05/12 04:51:31;;;;;;;6.60;4.22;;;;;;;13.49;72.30;100368.56;5057471;28;20045;-68
2022/05/12 04:53:59;;;;;;;8.45;5.03;;;;;;;13.52;72.45;100372.66;5054280;28;20045;-68
2022/05/12 04:56:26;;;;;;;6.95;4.32;;;;;;;13.58;72.31;100372.13;5055360;28;20063;-68
2022/05/12 04:58:54;;;;;;;7.03;4.35;;;;;;;13.63;72.31;100373.94;5055890;28;20057;-68
2022/05/12 05:01:21;;;;;;;7.63;4.60;;;;;;;13.54;72.28;100371.19;5055649;28;20488;-68
2022/05/12 05:03:48;;;;;;;8.25;4.95;;;;;;;13.58;72.45;100385.31;5055423;28;20072;-68
2022/05/12 05:06:17;;;;;;;9.15;5.18;;;;;;;13.62;72.21;100383.47;5054304;28;20116;-68
2022/05/12 05:08:44;;;;;;;7.93;4.70;;;;;;;13.65;72.35;100398.78;5057078;28;20045;-68
2022/05/12 05:11:12;;;;;;;9.10;5.22;;;;;;;13.69;72.07;100394.97;5055819;28;20404;-68
2022/05/12 05:13:40;;;;;;;8.70;5.47;;;;;;;13.75;71.72;100390.84;5054959;28;20059;-68
2022/05/12 05:16:07;;;;;;;11.15;6.07;;;;;;;13.82;71.85;100398.69;5057023;28;20049;-68
2022/05/12 05:18:36;;;;;;;10.32;6.45;;;;;;;13.85;71.82;100402.78;5054983;28;20958;-67
2022/05/12 05:21:03;;;;;;;9.50;6.18;;;;;;;13.90;71.63;100408.19;5056480;28;20381;-68
2022/05/12 05:23:33;;;;;;;11.18;6.53;;;;;;;13.94;71.49;100410.00;5055471;28;20057;-68
2022/05/12 05:26:00;;;;;;;7.50;6.45;;;;;;;14.02;71.29;100420.28;5052836;28;20060;-67
2022/05/12 05:28:27;;;;;;;7.93;6.00;;;;;;;14.10;70.90;100420.59;5054834;28;20405;-67
2022/05/12 05:30:55;;;;;;;8.70;5.90;;;;;;;14.13;70.81;100436.72;5055953;28;20056;-68
2022/05/12 05:33:23;;;;;;;9.80;5.65;;;;;;;14.12;70.55;100435.91;5054225;28;20049;-68
2022/05/12 05:35:50;;;;;;;8.48;6.38;;;;;;;14.17;70.15;100438.53;5053988;28;20389;-67
2022/05/12 05:38:18;;;;;;;9.45;5.70;;;;;;;14.26;70.04;100446.00;5054425;28;20071;-68
2022/05/12 05:40:47;;;;;;;9.55;5.95;;;;;;;14.40;69.60;100446.56;5054793;28;20049;-68
2022/05/12 05:43:14;;;;;;;10.25;5.97;;;;;;;14.51;69.05;100450.63;5055102;28;20056;-68
2022/05/12 05:45:42;;;;;;;8.95;5.78;;;;;;;14.48;68.48;100456.09;5055000;28;20061;-68
2022/05/12 05:48:09;;;;;;;8.15;5.72;;;;;;;14.57;67.79;100457.72;5046833;28;20050;-67
2022/05/12 05:53:26;;;;;;;8.73;5.13;;;;;;;14.66;66.51;100454.00;5054683;28;20401;-67
2022/05/12 05:55:57;;;;;;;5.80;4.72;;;;;;;14.78;66.44;100466.09;5054488;28;20409;-68
2022/05/12 05:58:26;;;;;;;9.02;5.30;;;;;;;14.75;65.69;100478.00;5053891;28;20044;-68
2022/05/12 06:00:54;;;;;;;7.72;5.18;;;;;;;14.86;65.64;100477.59;5053977;28;20079;-68
2022/05/12 06:03:22;;;;;;;8.40;5.43;;;;;;;14.92;65.76;100474.22;5056531;28;20057;-68
2022/05/12 06:05:50;;;;;;;9.02;5.20;;;;;;;14.94;65.36;100473.88;5052801;28;20052;-68
2022/05/12 06:08:20;;;;;;;7.65;5.03;;;;;;;15.05;64.70;100471.47;5066441;28;20059;-68
2022/05/12 06:10:48;;;;;;;8.63;4.70;;;;;;;15.13;64.67;100479.78;5054421;28;20049;-68
2022/05/12 06:13:17;;;;;;;7.28;4.28;;;;;;;15.21;64.50;100480.88;5054277;28;20060;-68
2022/05/12 06:15:44;;;;;;;;;;;;;;;15.11;64.05;100481.31;5061725;28;20046;-68
2022/05/12 06:18:15;;;;;;;7.22;4.18;;;;;;;15.30;63.95;100480.78;5069075;28;20394;-68
2022/05/12 06:20:44;;;;;;;7.03;3.88;;;;;;;15.42;62.86;100487.25;5054641;28;20053;-68
2022/05/12 06:23:13;;;;;;;9.38;4.80;;;;;;;15.62;62.32;100491.19;5054573;28;20060;-68
2022/05/12 06:25:41;;;;;;;8.70;4.20;;;;;;;15.71;62.21;100485.44;5054141;28;20045;-68
2022/05/12 06:28:09;;;;;;;8.45;3.88;;;;;;;15.80;62.01;100490.97;5053802;28;20053;-68
2022/05/12 06:30:39;;;;;;;6.68;3.95;;;;;;;15.93;61.38;100497.44;5054311;28;20123;-68
2022/05/12 06:33:07;;;;;;;6.47;3.80;;;;;;;16.06;60.17;100487.81;5053810;28;20377;-68
2022/05/12 06:35:35;;;;;;;6.75;4.30;;;;;;;16.18;59.98;100501.88;5054079;28;20057;-68
2022/05/12 06:38:02;;;;;;;8.13;4.05;;;;;;;16.12;58.50;100508.91;5054128;28;20386;-68
2022/05/12 06:40:29;;;;;;;6.47;3.13;;;;;;;16.23;58.53;100509.25;5053433;28;20052;-68
2022/05/12 06:42:58;;;;;;;6.68;3.50;;;;;;;16.26;58.33;100516.19;5054203;28;20059;-68
2022/05/12 06:45:25;;;;;;;6.95;3.67;;;;;;;16.39;58.61;100518.59;5052577;28;20476;-68
2022/05/12 06:47:54;;;;;;;10.20;4.43;;;;;;;16.49;58.38;100517.31;5053339;28;20052;-68
2022/05/12 06:50:25;;;;;;;5.13;3.90;;;;;;;16.44;57.83;100515.56;5053540;28;20064;-68
2022/05/12 06:52:53;;;;;;;8.02;3.45;;;;;;;16.77;57.54;100523.00;5052315;28;20059;-68
2022/05/12 06:55:21;;;;;;;7.22;3.70;;;;;;;17.16;56.50;100511.31;5053524;28;20074;-67
2022/05/12 06:57:49;;;;;;;6.18;3.50;;;;;;;17.42;56.09;100514.44;5053323;28;20056;-68
2022/05/12 07:00:17;;;;;;;5.97;3.65;;;;;;;17.63;55.55;100514.22;5053509;28;20049;-68
2022/05/12 07:02:46;;;;;;;7.20;3.42;;;;;;;18.04;54.36;100525.38;5053209;28;20056;-68
2022/05/12 07:05:15;;;;;;;6.63;3.25;;;;;;;18.48;53.24;100519.59;5052369;28;20071;-64
2022/05/12 07:07:43;;;;;;;;;;;;;;;18.53;52.53;100521.31;5045735;28;20057;-63
2022/05/12 07:10:12;;;;;;;7.88;3.60;;;;;;;18.92;52.66;100527.88;5041339;28;19935;-63
2022/05/12 07:12:41;;;;;;;7.38;3.53;;;;;;;19.04;52.27;100521.25;5047444;28;20049;-63
2022/05/12 07:15:10;;;;;;;4.35;3.40;;;;;;;19.30;50.77;100528.22;5046168;28;20056;-63
2022/05/12 07:17:38;;;;;;;6.70;3.47;;;;;;;19.63;49.93;100531.34;5046635;28;20052;-64
2022/05/12 07:28:23;;;;;;;7.65;3.65;;;;;;;19.73;49.98;100527.09;5053103;28;20150;-64
2022/05/12 07:31:02;;;;;;;6.07;3.60;;;;;;;20.34;47.88;100527.31;5045346;28;20044;-64
2022/05/12 07:33:31;;;;;;;5.57;4.07;;;;;;;20.74;45.69;100525.94;5046698;28;20065;-64
2022/05/12 07:36:00;;;;;;;8.05;4.00;;;;;;;21.43;44.92;100529.28;5046155;28;20064;-64
2022/05/12 07:38:28;;;;;;;5.53;3.93;;;;;;;20.95;44.83;100537.53;5048356;28;20417;-64
2022/05/12 07:40:56;;;;;;;6.30;4.20;;;;;;;21.80;43.77;100536.97;5045575;28;20063;-64
2022/05/12 07:43:23;;;;;;;7.60;4.20;;;;;;;21.24;43.55;100543.59;5046270;28;20045;-64
2022/05/12 07:45:51;;;;;;;6.32;3.83;;;;;;;20.75;44.71;100541.72;5045594;28;20075;-64
2022/05/12 07:48:19;;;;;;;7.35;3.92;;;;;;;21.26;44.27;100536.31;5048280;28;20053;-64
2022/05/12 07:50:46;;;;;;;5.35;3.60;;;;;;;23.08;39.88;100535.53;5045338;28;20053;-64
2022/05/12 07:53:13;;;;;;;6.40;4.00;;;;;;;24.26;37.01;100549.25;5047666;28;20412;-64
2022/05/12 07:55:42;;;;;;;5.95;3.67;;;;;;;24.85;35.41;100546.75;5045661;28;20045;-64
2022/05/12 07:58:12;;;;;;;4.93;3.50;;;;;;;25.52;34.37;100544.91;5045623;28;20048;-64
2022/05/12 08:00:40;;;;;;;6.25;3.83;;;;;;;26.67;32.66;100541.22;5044893;28;20059;-64
2022/05/12 08:03:08;;;;;;;5.07;3.50;;;;;;;27.45;31.59;100547.28;5044215;28;20060;-64
2022/05/12 08:05:38;;;;;;;6.15;3.80;;;;;;;28.10;29.86;100550.03;5049069;28;20071;-65
2022/05/12 08:08:07;;;;;;;5.60;3.63;;;;;;;28.59;29.33;100552.50;5047058;28;20693;-65
2022/05/12 08:10:36;;;;;;;4.00;3.25;;;;;;;27.61;31.24;100551.56;5048693;28;20052;-64
2022/05/12 08:13:14;;;;;;;5.25;3.40;;;;;;;27.64;30.54;100554.38;5047004;28;20060;-64
2022/05/12 08:15:42;;;;;;;4.93;2.50;;;;;;;29.39;28.82;100552.59;5045765;28;20481;-65
2022/05/12 08:18:09;;;;;;;5.18;2.65;;;;;;;30.66;26.60;100549.22;5045773;28;20056;-65
2022/05/12 08:20:38;;;;;;;5.15;2.45;;;;;;;32.00;24.89;100541.19;5049073;28;20056;-64
2022/05/12 08:23:06;;;;;;;3.53;2.10;;;;;;;32.49;23.26;100560.97;5046669;28;20045;-65
2022/05/12 08:25:34;;;;;;;3.65;2.40;;;;;;;31.68;23.13;100559.47;5046232;28;20049;-65
2022/05/12 08:28:02;;;;;;;3.05;1.88;;;;;;;32.14;23.78;100551.47;5045081;28;20053;-65
2022/05/12 08:30:31;;;;;;;3.30;1.25;;;;;;;32.72;22.10;100551.13;5045782;28;20059;-65
2022/05/12 08:32:59;;;;;;;5.57;2.20;;;;;;;33.41;20.62;100566.78;5045040;28;20532;-65
2022/05/12 08:35:27;;;;;;;4.03;1.55;;;;;;;34.42;20.66;100559.88;5049494;28;20500;-65
2022/05/12 08:37:55;;;;;;;2.53;1.58;;;;;;;35.20;19.44;100566.44;5045216;28;20051;-65
2022/05/12 08:40:36;;;;;;;3.47;1.70;;;;;;;35.87;19.71;100571.13;5046144;28;20044;-65
2022/05/12 08:43:16;;;;;;;3.50;1.60;;;;;;;35.70;18.41;100570.72;5045912;28;20052;-65
2022/05/12 08:45:47;;;;;;;4.82;1.63;;;;;;;36.68;18.40;100567.50;5044463;28;20511;-65
2022/05/12 08:48:16;;;;;;;4.55;1.98;;;;;;;36.82;17.72;100573.88;5046483;28;20052;-65
2022/05/12 08:50:47;;;;;;;4.30;1.90;;;;;;;35.95;18.17;100581.09;5046142;28;20060;-65
2022/05/12 08:53:18;;;;;;;3.25;1.70;;;;;;;36.54;18.08;100571.13;5046615;28;20051;-65
2022/05/12 08:55:50;;;;;;;2.53;1.42;;;;;;;37.09;18.02;100564.94;5044582;28;20069;-65
2022/05/12 08:58:23;;;;;;;4.25;1.90;;;;;;;37.70;17.10;100573.25;5045840;28;20100;-65
2022/05/12 09:01:00;;;;;;;3.25;1.90;;;;;;;38.61;16.24;100574.69;5045379;28;20568;-65
2022/05/12 09:03:44;;;;;;;2.83;1.65;;;;;;;39.99;14.68;100569.34;5046297;28;20935;-65
2022/05/12 09:06:16;;;;;;;3.80;1.52;;;;;;;39.24;14.81;100574.16;5048674;28;20049;-65
2022/05/12 09:08:53;;;;;;;3.25;1.88;;;;;;;38.06;16.71;100564.59;5044878;28;20068;-65
2022/05/12 09:11:27;;;;;;;3.25;1.77;;;;;;;39.34;15.44;100573.47;5046316;28;20136;-65
2022/05/12 09:13:55;;;;;;;4.68;2.00;;;;;;;40.02;14.66;100570.41;5043175;28;20057;-65
2022/05/12 09:16:28;;;;;;;4.60;2.08;;;;;;;41.31;14.60;100571.09;5045068;28;20049;-65
2022/05/12 09:18:57;;;;;;;4.35;1.52;;;;;;;40.75;14.06;100559.22;5044716;28;20406;-65
2022/05/12 09:21:27;;;;;;;4.03;1.60;;;;;;;40.36;14.53;100556.84;5049221;28;20052;-65
2022/05/12 09:23:56;;;;;;;4.95;1.70;;;;;;;37.94;15.73;100570.19;5044829;28;20547;-65
2022/05/12 09:26:37;;;;;;;5.43;2.00;;;;;;;36.87;16.61;100570.28;5045346;28;20052;-65
2022/05/12 09:29:17;;;;;;;3.88;1.63;;;;;;;36.60;16.46;100574.94;5045613;28;20061;-65
2022/05/12 09:31:48;;;;;;;3.40;2.33;;;;;;;35.32;17.66;100568.34;5042504;28;20492;-64
2022/05/12 09:34:29;;;;;;;3.88;2.08;;;;;;;37.84;15.34;100560.00;5046914;28;20059;-64
2022/05/12 09:36:57;;;;;;;3.55;1.83;;;;;;;38.83;14.41;100565.44;5045019;28;20056;-64
2022/05/12 09:39:36;;;;;;;2.88;1.50;;;;;;;36.75;15.83;100572.97;5046242;28;20543;-64
2022/05/12 09:42:06;;;;;;;3.75;1.75;;;;;;;34.90;17.74;100560.28;5051561;28;20048;-64
2022/05/12 09:44:35;;;;;;;4.72;2.00;;;;;;;34.89;17.92;100564.47;5047131;28;20045;-64
2022/05/12 09:47:07;;;;;;;3.50;1.67;;;;;;;35.82;17.88;100568.88;5050008;28;20060;-64
2022/05/12 09:49:38;;;;;;;4.75;1.75;;;;;;;34.95;18.06;100566.25;5052615;28;20049;-64
2022/05/12 09:52:50;;;;;;;6.45;3.72;;;;;;;35.34;18.17;100566.59;5048567;28;20060;-63
2022/05/12 09:55:22;;;;;;;4.32;3.30;;;;;;;37.67;16.69;100561.81;5018657;28;20057;-64
2022/05/12 09:57:54;;;;;;;3.25;1.45;;;;;;;37.28;16.71;100570.59;5046826;28;20381;-64
2022/05/12 10:00:31;;;;;;;2.42;1.42;;;;;;;36.49;16.29;100572.63;5047179;28;20059;-64
2022/05/12 10:08:44;;;;;;;2.42;1.60;;;;;;;39.07;13.19;100566.03;5048902;28;20067;-64
2022/05/12 10:11:15;;;;;;;3.03;1.90;;;;;;;38.93;13.50;100556.06;5047681;28;20063;-64
2022/05/12 10:13:47;;;;;;;3.33;2.35;;;;;;;40.08;12.76;100542.88;5047845;28;20056;-64
2022/05/12 10:16:18;;;;;;;6.05;1.80;;;;;;;40.63;12.98;100558.31;5044532;28;20401;-64
2022/05/12 10:18:49;;;;;;;3.58;1.70;;;;;;;39.81;12.01;100544.22;5046876;28;20473;-64
2022/05/12 10:21:22;;;;;;;4.05;1.88;;;;;;;38.93;12.92;100550.22;5046487;28;20492;-64
2022/05/12 10:24:03;;;;;;;2.60;1.50;;;;;;;40.16;12.04;100538.16;5046195;28;20053;-64
2022/05/12 10:26:38;;;;;;;3.72;1.48;;;;;;;41.13;11.97;100534.34;5046988;28;20052;-64
2022/05/12 10:29:10;;;;;;;2.72;1.50;;;;;;;40.72;11.63;100533.94;5047295;28;20056;-64
2022/05/12 10:31:47;;;;;;;3.15;1.65;;;;;;;40.75;12.28;100536.63;5047159;28;20386;-65
2022/05/12 10:34:28;;;;;;;4.45;2.10;;;;;;;40.76;11.64;100538.25;5044023;28;20045;-64
2022/05/12 10:37:04;;;;;;;4.97;2.35;;;;;;;40.05;12.07;100534.34;5045229;28;20052;-64
2022/05/12 10:39:42;;;;;;;3.22;1.75;;;;;;;39.99;12.96;100537.25;5047297;28;20060;-65
2022/05/12 10:42:24;;;;;;;4.72;2.40;;;;;;;40.55;13.29;100540.53;5046990;28;20053;-64
2022/05/12 10:45:15;;;;;;;3.10;2.10;;;;;;;40.56;13.23;100526.72;5045765;28;20052;-64
2022/05/12 10:48:03;;;;;;;3.55;1.80;;;;;;;41.53;12.15;100517.69;5050518;28;20049;-64
2022/05/12 10:50:37;;;;;;;;;;;;;;;42.11;11.03;100522.22;5051427;28;20053;-64
2022/05/12 10:53:15;;;;;;;3.15;1.98;;;;;;;42.66;11.10;100526.31;5053010;28;20345;-64
2022/05/12 10:55:53;;;;;;;2.95;2.05;;;;;;;41.63;11.86;100526.25;5056189;28;20419;-64
2022/05/12 10:58:29;;;;;;;3.03;1.83;;;;;;;42.16;12.39;100521.41;5052923;28;20053;-64
2022/05/12 11:01:10;;;;;;;2.78;1.90;;;;;;;40.24;13.04;100526.78;5058552;28;20048;-64
2022/05/12 11:03:42;;;;;;;4.22;2.40;;;;;;;38.08;13.74;100532.91;5058163;28;20048;-64
2022/05/12 11:06:16;;;;;;;3.63;2.65;;;;;;;35.83;15.68;100541.53;5052014;28;20452;-64
2022/05/12 11:08:48;;;;;;;2.75;2.30;;;;;;;36.20;15.43;100535.56;5051394;28;20433;-64
2022/05/12 11:11:18;;;;;;;5.18;2.58;;;;;;;37.26;15.04;100533.34;5054517;28;20060;-64
2022/05/12 11:13:52;;;;;;;3.03;2.30;;;;;;;36.99;15.27;100534.38;5051357;28;20456;-64
2022/05/12 11:16:24;;;;;;;4.00;2.60;;;;;;;37.71;14.23;100528.31;5065417;28;20053;-64
2022/05/12 11:18:58;;;;;;;4.63;2.50;;;;;;;37.69;14.41;100530.94;5050684;28;20519;-64
2022/05/12 11:21:29;;;;;;;2.55;2.30;;;;;;;38.42;14.92;100536.31;5050820;28;20404;-64
2022/05/12 11:24:13;;;;;;;3.72;2.55;;;;;;;37.62;15.17;100519.72;5050807;28;20045;-64
2022/05/12 11:26:56;;;;;;;3.75;2.40;;;;;;;36.09;16.64;100520.78;5048782;28;20057;-64
2022/05/12 11:29:50;;;;;;;3.50;2.10;;;;;;;34.54;17.02;100530.84;5047487;28;20504;-64
2022/05/12 11:32:27;;;;;;;4.13;2.97;;;;;;;36.44;16.18;100520.28;5045088;28;20064;-64
2022/05/12 11:34:58;;;;;;;3.33;2.55;;;;;;;36.53;16.34;100509.38;5042905;28;20053;-64
2022/05/12 11:37:34;;;;;;;3.55;2.75;;;;;;;37.12;16.41;100517.47;5044400;28;20497;-64
2022/05/12 11:40:05;;;;;;;3.78;1.92;;;;;;;35.24;15.91;100515.75;5045833;28;20052;-64
2022/05/12 11:45:36;;;;;;;3.53;2.03;;;;;;;33.09;18.98;100522.59;5046009;28;20433;-64
2022/05/12 11:48:30;;;;;;;2.92;1.98;;;;;;;32.47;19.47;100516.59;5044330;28;20073;-64
2022/05/12 11:51:11;;;;;;;3.42;2.13;;;;;;;33.88;17.40;100515.84;5047966;28;21158;-64
2022/05/12 11:53:55;;;;;;;4.30;1.95;;;;;;;35.34;17.01;100505.75;5044326;28;20072;-64
2022/05/12 11:56:42;;;;;;;4.07;2.42;;;;;;;34.80;17.09;100503.69;5046495;28;20076;-64
2022/05/12 11:59:24;;;;;;;4.18;2.47;;;;;;;35.91;16.38;100510.06;5044399;28;20519;-64
2022/05/12 12:01:56;;;;;;;2.75;2.00;;;;;;;36.52;16.14;100496.19;5047389;28;20448;-64
2022/05/12 12:04:44;;;;;;;3.95;2.05;;;;;;;36.08;15.71;100511.28;5026415;28;20060;-64
2022/05/12 12:07:15;;;;;;;3.17;2.10;;;;;;;34.82;17.21;100509.81;5046493;28;20111;-64